sensor_id;sensor_type;location;lat;lon;timestamp;P1;durP1;ratioP1;P2;durP2;ratioP2
57047;SDS011;42934;54.294;18.598;2022-08-19T00:02:06;17.70;;;11.82;;
57047;SDS011;42934;54.294;18.598;2022-08-19T00:04:35;12.90;;;11.60;;
57047;SDS011;42934;54.294;18.598;2022-08-19T00:07:05;18.00;;;12.98;;
57047;SDS011;42934;54.294;18.598;2022-08-19T00:09:36;17.55;;;13.15;;
57047;SDS011;42934;54.294;18.598;2022-08-19T00:12:06;17.75;;;13.00;;
57047;SDS011;42934;54.294;18.598;2022-08-19T00:14:35;14.57;;;13.07;;
57047;SDS011;42934;54.294;18.598;2022-08-19T00:17:06;16.75;;;13.88;;
57047;SDS011;42934;54.294;18.598;2022-08-19T00:19:36;15.60;;;13.23;;
57047;SDS011;42934;54.294;18.598;2022-08-19T00:22:07;22.85;;;13.27;;
57047;SDS011;42934;54.294;18.598;2022-08-19T00:24:38;18.00;;;12.32;;
57047;SDS011;42934;54.294;18.598;2022-08-19T00:27:16;17.50;;;13.20;;
57047;SDS011;42934;54.294;18.598;2022-08-19T00:29:52;16.52;;;13.35;;
57047;SDS011;42934;54.294;18.598;2022-08-19T00:32:22;14.32;;;12.80;;
57047;SDS011;42934;54.294;18.598;2022-08-19T00:34:52;17.55;;;12.68;;
57047;SDS011;42934;54.294;18.598;2022-08-19T00:37:22;17.40;;;13.05;;
57047;SDS011;42934;54.294;18.598;2022-08-19T00:39:55;14.13;;;12.68;;
57047;SDS011;42934;54.294;18.598;2022-08-19T00:42:24;15.25;;;12.77;;
57047;SDS011;42934;54.294;18.598;2022-08-19T00:44:55;16.08;;;12.32;;
57047;SDS011;42934;54.294;18.598;2022-08-19T00:47:25;17.85;;;12.75;;
57047;SDS011;42934;54.294;18.598;2022-08-19T00:49:55;15.68;;;12.85;;
57047;SDS011;42934;54.294;18.598;2022-08-19T00:52:27;14.70;;;12.55;;
57047;SDS011;42934;54.294;18.598;2022-08-19T00:55:02;16.52;;;12.05;;
57047;SDS011;42934;54.294;18.598;2022-08-19T00:57:35;15.57;;;12.73;;
57047;SDS011;42934;54.294;18.598;2022-08-19T01:00:07;17.52;;;13.05;;
57047;SDS011;42934;54.294;18.598;2022-08-19T01:02:40;17.50;;;13.40;;
57047;SDS011;42934;54.294;18.598;2022-08-19T01:07:41;13.75;;;12.27;;
57047;SDS011;42934;54.294;18.598;2022-08-19T01:10:13;14.73;;;12.45;;
57047;SDS011;42934;54.294;18.598;2022-08-19T01:12:46;15.85;;;12.27;;
57047;SDS011;42934;54.294;18.598;2022-08-19T01:15:17;14.70;;;12.60;;
57047;SDS011;42934;54.294;18.598;2022-08-19T01:17:49;14.93;;;12.75;;
57047;SDS011;42934;54.294;18.598;2022-08-19T01:20:21;14.88;;;12.68;;
57047;SDS011;42934;54.294;18.598;2022-08-19T01:22:54;16.35;;;12.50;;
57047;SDS011;42934;54.294;18.598;2022-08-19T01:25:28;16.10;;;13.27;;
57047;SDS011;42934;54.294;18.598;2022-08-19T01:28:00;14.43;;;12.90;;
57047;SDS011;42934;54.294;18.598;2022-08-19T01:30:36;14.85;;;13.30;;
57047;SDS011;42934;54.294;18.598;2022-08-19T01:33:16;15.60;;;12.68;;
57047;SDS011;42934;54.294;18.598;2022-08-19T01:35:46;15.02;;;13.18;;
57047;SDS011;42934;54.294;18.598;2022-08-19T01:38:21;17.33;;;13.18;;
57047;SDS011;42934;54.294;18.598;2022-08-19T01:40:53;15.65;;;13.13;;
57047;SDS011;42934;54.294;18.598;2022-08-19T01:43:22;14.93;;;13.38;;
57047;SDS011;42934;54.294;18.598;2022-08-19T01:45:51;14.60;;;13.18;;
57047;SDS011;42934;54.294;18.598;2022-08-19T01:48:21;16.08;;;13.20;;
57047;SDS011;42934;54.294;18.598;2022-08-19T01:50:50;17.38;;;12.50;;
57047;SDS011;42934;54.294;18.598;2022-08-19T01:53:21;17.02;;;12.98;;
57047;SDS011;42934;54.294;18.598;2022-08-19T01:55:59;16.35;;;12.82;;
57047;SDS011;42934;54.294;18.598;2022-08-19T01:58:30;16.17;;;12.98;;
57047;SDS011;42934;54.294;18.598;2022-08-19T02:01:05;17.15;;;12.18;;
57047;SDS011;42934;54.294;18.598;2022-08-19T02:03:35;15.38;;;12.85;;
57047;SDS011;42934;54.294;18.598;2022-08-19T02:06:05;17.30;;;13.45;;
57047;SDS011;42934;54.294;18.598;2022-08-19T02:08:38;19.10;;;12.85;;
57047;SDS011;42934;54.294;18.598;2022-08-19T02:11:08;18.35;;;13.68;;
57047;SDS011;42934;54.294;18.598;2022-08-19T02:13:45;18.48;;;13.55;;
57047;SDS011;42934;54.294;18.598;2022-08-19T02:16:16;16.48;;;14.35;;
57047;SDS011;42934;54.294;18.598;2022-08-19T02:18:46;14.70;;;12.52;;
57047;SDS011;42934;54.294;18.598;2022-08-19T02:21:16;19.55;;;14.38;;
57047;SDS011;42934;54.294;18.598;2022-08-19T02:23:48;17.27;;;14.10;;
57047;SDS011;42934;54.294;18.598;2022-08-19T02:26:18;17.35;;;13.73;;
57047;SDS011;42934;54.294;18.598;2022-08-19T02:28:48;18.55;;;14.77;;
57047;SDS011;42934;54.294;18.598;2022-08-19T02:31:19;16.52;;;14.52;;
57047;SDS011;42934;54.294;18.598;2022-08-19T02:33:51;16.67;;;14.10;;
57047;SDS011;42934;54.294;18.598;2022-08-19T02:36:23;14.52;;;13.10;;
57047;SDS011;42934;54.294;18.598;2022-08-19T02:38:54;16.23;;;12.70;;
57047;SDS011;42934;54.294;18.598;2022-08-19T02:41:24;14.63;;;12.93;;
57047;SDS011;42934;54.294;18.598;2022-08-19T02:43:58;17.02;;;13.25;;
57047;SDS011;42934;54.294;18.598;2022-08-19T02:46:49;20.83;;;13.02;;
57047;SDS011;42934;54.294;18.598;2022-08-19T02:49:19;15.45;;;12.60;;
57047;SDS011;42934;54.294;18.598;2022-08-19T02:51:48;14.07;;;12.68;;
57047;SDS011;42934;54.294;18.598;2022-08-19T02:54:19;16.05;;;12.90;;
57047;SDS011;42934;54.294;18.598;2022-08-19T02:56:49;16.42;;;13.27;;
57047;SDS011;42934;54.294;18.598;2022-08-19T02:59:18;16.10;;;13.25;;
57047;SDS011;42934;54.294;18.598;2022-08-19T03:01:48;15.20;;;12.57;;
57047;SDS011;42934;54.294;18.598;2022-08-19T03:04:19;13.95;;;12.65;;
57047;SDS011;42934;54.294;18.598;2022-08-19T03:06:49;14.13;;;12.45;;
57047;SDS011;42934;54.294;18.598;2022-08-19T03:09:20;14.73;;;13.23;;
57047;SDS011;42934;54.294;18.598;2022-08-19T03:11:50;14.30;;;11.93;;
57047;SDS011;42934;54.294;18.598;2022-08-19T03:14:19;14.00;;;12.50;;
57047;SDS011;42934;54.294;18.598;2022-08-19T03:16:50;14.20;;;11.88;;
57047;SDS011;42934;54.294;18.598;2022-08-19T03:19:20;14.70;;;12.23;;
57047;SDS011;42934;54.294;18.598;2022-08-19T03:21:50;15.15;;;12.38;;
57047;SDS011;42934;54.294;18.598;2022-08-19T03:24:21;13.52;;;12.10;;
57047;SDS011;42934;54.294;18.598;2022-08-19T03:26:52;14.30;;;12.60;;
57047;SDS011;42934;54.294;18.598;2022-08-19T03:29:24;16.98;;;13.13;;
57047;SDS011;42934;54.294;18.598;2022-08-19T03:31:57;19.08;;;13.23;;
57047;SDS011;42934;54.294;18.598;2022-08-19T03:34:30;15.20;;;13.60;;
57047;SDS011;42934;54.294;18.598;2022-08-19T03:37:03;15.10;;;13.60;;
57047;SDS011;42934;54.294;18.598;2022-08-19T03:39:36;14.85;;;12.50;;
57047;SDS011;42934;54.294;18.598;2022-08-19T03:42:07;15.32;;;13.73;;
57047;SDS011;42934;54.294;18.598;2022-08-19T03:44:59;15.60;;;13.93;;
57047;SDS011;42934;54.294;18.598;2022-08-19T03:47:28;17.92;;;15.00;;
57047;SDS011;42934;54.294;18.598;2022-08-19T03:49:58;17.70;;;15.32;;
57047;SDS011;42934;54.294;18.598;2022-08-19T03:52:27;19.70;;;15.43;;
57047;SDS011;42934;54.294;18.598;2022-08-19T03:54:58;19.83;;;15.57;;
57047;SDS011;42934;54.294;18.598;2022-08-19T03:57:27;18.70;;;16.50;;
57047;SDS011;42934;54.294;18.598;2022-08-19T03:59:58;21.10;;;18.33;;
57047;SDS011;42934;54.294;18.598;2022-08-19T04:02:39;18.52;;;15.30;;
57047;SDS011;42934;54.294;18.598;2022-08-19T04:05:27;21.60;;;16.85;;
57047;SDS011;42934;54.294;18.598;2022-08-19T04:10:27;17.38;;;15.15;;
57047;SDS011;42934;54.294;18.598;2022-08-19T04:12:57;18.58;;;15.68;;
57047;SDS011;42934;54.294;18.598;2022-08-19T04:15:26;21.80;;;18.20;;
57047;SDS011;42934;54.294;18.598;2022-08-19T04:18:00;20.92;;;16.05;;
57047;SDS011;42934;54.294;18.598;2022-08-19T04:20:31;20.83;;;18.63;;
57047;SDS011;42934;54.294;18.598;2022-08-19T04:23:00;23.60;;;17.98;;
57047;SDS011;42934;54.294;18.598;2022-08-19T04:25:35;19.65;;;16.70;;
57047;SDS011;42934;54.294;18.598;2022-08-19T04:28:06;19.73;;;16.65;;
57047;SDS011;42934;54.294;18.598;2022-08-19T04:30:40;20.75;;;16.73;;
57047;SDS011;42934;54.294;18.598;2022-08-19T04:33:10;20.27;;;17.85;;
57047;SDS011;42934;54.294;18.598;2022-08-19T04:35:44;21.60;;;18.60;;
57047;SDS011;42934;54.294;18.598;2022-08-19T04:38:15;24.35;;;17.13;;
57047;SDS011;42934;54.294;18.598;2022-08-19T04:40:48;23.88;;;18.33;;
57047;SDS011;42934;54.294;18.598;2022-08-19T04:43:37;20.50;;;18.30;;
57047;SDS011;42934;54.294;18.598;2022-08-19T04:46:07;21.17;;;18.15;;
57047;SDS011;42934;54.294;18.598;2022-08-19T04:48:58;24.27;;;16.20;;
57047;SDS011;42934;54.294;18.598;2022-08-19T04:51:39;16.90;;;15.18;;
57047;SDS011;42934;54.294;18.598;2022-08-19T04:54:10;16.88;;;14.18;;
57047;SDS011;42934;54.294;18.598;2022-08-19T04:57:02;17.80;;;14.20;;
57047;SDS011;42934;54.294;18.598;2022-08-19T04:59:33;18.50;;;13.98;;
57047;SDS011;42934;54.294;18.598;2022-08-19T05:04:34;15.73;;;14.13;;
57047;SDS011;42934;54.294;18.598;2022-08-19T05:07:06;19.70;;;14.55;;
57047;SDS011;42934;54.294;18.598;2022-08-19T05:09:36;23.23;;;15.18;;
57047;SDS011;42934;54.294;18.598;2022-08-19T05:12:26;17.17;;;14.38;;
57047;SDS011;42934;54.294;18.598;2022-08-19T05:14:56;21.30;;;15.07;;
57047;SDS011;42934;54.294;18.598;2022-08-19T05:17:27;19.27;;;14.98;;
57047;SDS011;42934;54.294;18.598;2022-08-19T05:20:04;18.40;;;15.40;;
57047;SDS011;42934;54.294;18.598;2022-08-19T05:22:51;20.20;;;14.85;;
57047;SDS011;42934;54.294;18.598;2022-08-19T05:25:21;19.63;;;14.70;;
57047;SDS011;42934;54.294;18.598;2022-08-19T05:27:54;21.15;;;15.07;;
57047;SDS011;42934;54.294;18.598;2022-08-19T05:30:23;21.45;;;14.85;;
57047;SDS011;42934;54.294;18.598;2022-08-19T05:33:13;21.13;;;15.18;;
57047;SDS011;42934;54.294;18.598;2022-08-19T05:35:42;18.02;;;14.80;;
57047;SDS011;42934;54.294;18.598;2022-08-19T05:38:12;18.73;;;13.75;;
57047;SDS011;42934;54.294;18.598;2022-08-19T05:40:42;20.20;;;14.57;;
57047;SDS011;42934;54.294;18.598;2022-08-19T05:43:17;19.17;;;14.65;;
57047;SDS011;42934;54.294;18.598;2022-08-19T05:45:47;21.80;;;14.93;;
57047;SDS011;42934;54.294;18.598;2022-08-19T05:50:47;16.67;;;13.75;;
57047;SDS011;42934;54.294;18.598;2022-08-19T05:53:17;19.17;;;13.98;;
57047;SDS011;42934;54.294;18.598;2022-08-19T05:55:47;15.10;;;13.50;;
57047;SDS011;42934;54.294;18.598;2022-08-19T05:58:18;20.92;;;14.73;;
57047;SDS011;42934;54.294;18.598;2022-08-19T06:00:50;16.45;;;14.20;;
57047;SDS011;42934;54.294;18.598;2022-08-19T06:03:21;15.20;;;13.32;;
57047;SDS011;42934;54.294;18.598;2022-08-19T06:05:51;19.10;;;13.85;;
57047;SDS011;42934;54.294;18.598;2022-08-19T06:11:14;17.20;;;14.00;;
57047;SDS011;42934;54.294;18.598;2022-08-19T06:13:46;18.40;;;13.93;;
57047;SDS011;42934;54.294;18.598;2022-08-19T06:16:26;16.15;;;14.00;;
57047;SDS011;42934;54.294;18.598;2022-08-19T06:18:55;16.95;;;14.00;;
57047;SDS011;42934;54.294;18.598;2022-08-19T06:21:28;15.80;;;13.60;;
57047;SDS011;42934;54.294;18.598;2022-08-19T06:23:58;15.68;;;13.68;;
57047;SDS011;42934;54.294;18.598;2022-08-19T06:26:29;23.00;;;14.23;;
57047;SDS011;42934;54.294;18.598;2022-08-19T06:29:00;17.42;;;13.38;;
57047;SDS011;42934;54.294;18.598;2022-08-19T06:31:30;15.77;;;13.25;;
57047;SDS011;42934;54.294;18.598;2022-08-19T06:34:00;16.83;;;13.50;;
57047;SDS011;42934;54.294;18.598;2022-08-19T06:36:32;15.77;;;13.55;;
57047;SDS011;42934;54.294;18.598;2022-08-19T06:39:03;16.67;;;12.57;;
57047;SDS011;42934;54.294;18.598;2022-08-19T06:41:36;16.10;;;13.10;;
57047;SDS011;42934;54.294;18.598;2022-08-19T06:44:18;20.88;;;14.13;;
57047;SDS011;42934;54.294;18.598;2022-08-19T06:46:51;19.20;;;13.00;;
57047;SDS011;42934;54.294;18.598;2022-08-19T06:49:22;18.73;;;13.40;;
57047;SDS011;42934;54.294;18.598;2022-08-19T06:51:58;18.38;;;13.32;;
57047;SDS011;42934;54.294;18.598;2022-08-19T06:54:28;16.73;;;13.35;;
57047;SDS011;42934;54.294;18.598;2022-08-19T06:57:13;19.27;;;13.30;;
57047;SDS011;42934;54.294;18.598;2022-08-19T06:59:44;16.73;;;12.70;;
57047;SDS011;42934;54.294;18.598;2022-08-19T07:02:13;14.90;;;13.07;;
57047;SDS011;42934;54.294;18.598;2022-08-19T07:04:43;13.82;;;12.10;;
57047;SDS011;42934;54.294;18.598;2022-08-19T07:07:14;20.02;;;13.25;;
57047;SDS011;42934;54.294;18.598;2022-08-19T07:09:48;13.65;;;12.20;;
57047;SDS011;42934;54.294;18.598;2022-08-19T07:12:26;14.85;;;12.40;;
57047;SDS011;42934;54.294;18.598;2022-08-19T07:15:04;17.95;;;12.35;;
57047;SDS011;42934;54.294;18.598;2022-08-19T07:17:36;18.08;;;12.88;;
57047;SDS011;42934;54.294;18.598;2022-08-19T07:20:08;14.70;;;12.77;;
57047;SDS011;42934;54.294;18.598;2022-08-19T07:22:38;13.52;;;12.13;;
57047;SDS011;42934;54.294;18.598;2022-08-19T07:25:08;19.23;;;12.20;;
57047;SDS011;42934;54.294;18.598;2022-08-19T07:27:40;16.15;;;11.60;;
57047;SDS011;42934;54.294;18.598;2022-08-19T07:30:13;13.90;;;12.45;;
57047;SDS011;42934;54.294;18.598;2022-08-19T07:32:43;15.63;;;12.50;;
57047;SDS011;42934;54.294;18.598;2022-08-19T07:35:16;17.42;;;12.52;;
57047;SDS011;42934;54.294;18.598;2022-08-19T07:37:46;15.07;;;11.90;;
57047;SDS011;42934;54.294;18.598;2022-08-19T07:40:15;16.58;;;12.43;;
57047;SDS011;42934;54.294;18.598;2022-08-19T07:42:45;13.80;;;11.80;;
57047;SDS011;42934;54.294;18.598;2022-08-19T07:45:16;14.68;;;12.27;;
57047;SDS011;42934;54.294;18.598;2022-08-19T07:47:45;15.45;;;12.70;;
57047;SDS011;42934;54.294;18.598;2022-08-19T07:50:17;14.35;;;12.13;;
57047;SDS011;42934;54.294;18.598;2022-08-19T07:52:48;19.30;;;11.75;;
57047;SDS011;42934;54.294;18.598;2022-08-19T07:55:21;19.92;;;12.27;;
57047;SDS011;42934;54.294;18.598;2022-08-19T08:03:09;14.82;;;12.10;;
57047;SDS011;42934;54.294;18.598;2022-08-19T08:05:39;14.80;;;11.38;;
57047;SDS011;42934;54.294;18.598;2022-08-19T08:08:26;13.05;;;11.02;;
57047;SDS011;42934;54.294;18.598;2022-08-19T08:11:25;21.33;;;11.43;;
57047;SDS011;42934;54.294;18.598;2022-08-19T08:13:55;14.95;;;12.05;;
57047;SDS011;42934;54.294;18.598;2022-08-19T08:16:32;20.27;;;11.73;;
57047;SDS011;42934;54.294;18.598;2022-08-19T08:19:13;14.27;;;11.30;;
57047;SDS011;42934;54.294;18.598;2022-08-19T08:21:52;14.02;;;10.95;;
57047;SDS011;42934;54.294;18.598;2022-08-19T08:24:22;14.98;;;10.68;;
57047;SDS011;42934;54.294;18.598;2022-08-19T08:26:55;15.48;;;10.70;;
57047;SDS011;42934;54.294;18.598;2022-08-19T08:29:27;12.18;;;10.65;;
57047;SDS011;42934;54.294;18.598;2022-08-19T08:32:03;15.95;;;10.60;;
57047;SDS011;42934;54.294;18.598;2022-08-19T08:34:40;13.45;;;9.98;;
57047;SDS011;42934;54.294;18.598;2022-08-19T08:37:13;15.45;;;9.07;;
57047;SDS011;42934;54.294;18.598;2022-08-19T08:39:42;11.80;;;10.05;;
57047;SDS011;42934;54.294;18.598;2022-08-19T08:42:15;11.20;;;8.90;;
57047;SDS011;42934;54.294;18.598;2022-08-19T08:44:55;11.45;;;8.75;;
57047;SDS011;42934;54.294;18.598;2022-08-19T08:47:32;15.70;;;9.18;;
57047;SDS011;42934;54.294;18.598;2022-08-19T08:50:09;16.17;;;8.77;;
57047;SDS011;42934;54.294;18.598;2022-08-19T08:52:44;9.80;;;8.80;;
57047;SDS011;42934;54.294;18.598;2022-08-19T08:55:19;10.13;;;8.75;;
57047;SDS011;42934;54.294;18.598;2022-08-19T08:57:52;11.35;;;8.25;;
57047;SDS011;42934;54.294;18.598;2022-08-19T09:00:24;11.30;;;7.97;;
57047;SDS011;42934;54.294;18.598;2022-08-19T09:02:57;14.68;;;8.00;;
57047;SDS011;42934;54.294;18.598;2022-08-19T09:05:32;11.55;;;8.00;;
57047;SDS011;42934;54.294;18.598;2022-08-19T09:08:16;9.35;;;7.90;;
57047;SDS011;42934;54.294;18.598;2022-08-19T09:10:54;11.55;;;8.63;;
57047;SDS011;42934;54.294;18.598;2022-08-19T09:13:26;11.70;;;7.68;;
57047;SDS011;42934;54.294;18.598;2022-08-19T09:16:05;11.38;;;8.15;;
57047;SDS011;42934;54.294;18.598;2022-08-19T09:18:40;14.10;;;7.63;;
57047;SDS011;42934;54.294;18.598;2022-08-19T09:21:11;11.95;;;7.60;;
57047;SDS011;42934;54.294;18.598;2022-08-19T09:23:49;11.45;;;7.65;;
57047;SDS011;42934;54.294;18.598;2022-08-19T09:26:19;12.88;;;8.13;;
57047;SDS011;42934;54.294;18.598;2022-08-19T09:29:10;9.55;;;7.60;;
57047;SDS011;42934;54.294;18.598;2022-08-19T09:31:39;20.63;;;7.82;;
57047;SDS011;42934;54.294;18.598;2022-08-19T09:34:10;9.38;;;7.53;;
57047;SDS011;42934;54.294;18.598;2022-08-19T09:36:48;14.13;;;7.80;;
57047;SDS011;42934;54.294;18.598;2022-08-19T09:39:20;10.48;;;7.22;;
57047;SDS011;42934;54.294;18.598;2022-08-19T09:41:51;10.85;;;7.30;;
57047;SDS011;42934;54.294;18.598;2022-08-19T09:44:23;12.55;;;7.70;;
57047;SDS011;42934;54.294;18.598;2022-08-19T09:46:53;11.10;;;7.53;;
57047;SDS011;42934;54.294;18.598;2022-08-19T09:49:24;11.57;;;8.15;;
57047;SDS011;42934;54.294;18.598;2022-08-19T09:51:54;10.82;;;7.15;;
57047;SDS011;42934;54.294;18.598;2022-08-19T09:56:54;11.27;;;7.28;;
57047;SDS011;42934;54.294;18.598;2022-08-19T09:59:34;10.40;;;7.60;;
57047;SDS011;42934;54.294;18.598;2022-08-19T10:02:04;15.07;;;6.60;;
57047;SDS011;42934;54.294;18.598;2022-08-19T10:04:38;13.15;;;6.80;;
57047;SDS011;42934;54.294;18.598;2022-08-19T10:07:26;14.90;;;6.82;;
57047;SDS011;42934;54.294;18.598;2022-08-19T10:10:02;15.20;;;6.97;;
57047;SDS011;42934;54.294;18.598;2022-08-19T10:12:33;8.55;;;6.68;;
57047;SDS011;42934;54.294;18.598;2022-08-19T10:15:04;9.30;;;6.53;;
57047;SDS011;42934;54.294;18.598;2022-08-19T10:17:37;11.48;;;7.40;;
57047;SDS011;42934;54.294;18.598;2022-08-19T10:20:15;7.13;;;6.32;;
57047;SDS011;42934;54.294;18.598;2022-08-19T10:22:45;7.63;;;6.30;;
57047;SDS011;42934;54.294;18.598;2022-08-19T10:25:17;8.50;;;6.65;;
57047;SDS011;42934;54.294;18.598;2022-08-19T10:27:47;12.30;;;6.57;;
57047;SDS011;42934;54.294;18.598;2022-08-19T10:30:17;7.50;;;6.40;;
57047;SDS011;42934;54.294;18.598;2022-08-19T10:35:17;12.20;;;7.25;;
57047;SDS011;42934;54.294;18.598;2022-08-19T10:37:49;9.05;;;6.63;;
57047;SDS011;42934;54.294;18.598;2022-08-19T10:40:26;11.63;;;6.72;;
57047;SDS011;42934;54.294;18.598;2022-08-19T10:42:56;9.40;;;6.15;;
57047;SDS011;42934;54.294;18.598;2022-08-19T10:45:25;13.65;;;6.80;;
57047;SDS011;42934;54.294;18.598;2022-08-19T10:47:55;11.32;;;6.68;;
57047;SDS011;42934;54.294;18.598;2022-08-19T10:50:27;9.50;;;7.18;;
57047;SDS011;42934;54.294;18.598;2022-08-19T10:53:14;15.15;;;7.30;;
57047;SDS011;42934;54.294;18.598;2022-08-19T10:55:44;8.60;;;6.50;;
57047;SDS011;42934;54.294;18.598;2022-08-19T10:58:31;10.35;;;6.90;;
57047;SDS011;42934;54.294;18.598;2022-08-19T11:01:00;8.32;;;7.03;;
57047;SDS011;42934;54.294;18.598;2022-08-19T11:03:30;11.25;;;6.65;;
57047;SDS011;42934;54.294;18.598;2022-08-19T11:06:01;11.23;;;6.55;;
57047;SDS011;42934;54.294;18.598;2022-08-19T11:08:32;10.93;;;6.22;;
57047;SDS011;42934;54.294;18.598;2022-08-19T11:11:04;9.85;;;6.30;;
57047;SDS011;42934;54.294;18.598;2022-08-19T11:13:35;12.57;;;6.05;;
57047;SDS011;42934;54.294;18.598;2022-08-19T11:16:08;11.98;;;6.43;;
57047;SDS011;42934;54.294;18.598;2022-08-19T11:18:41;11.13;;;6.80;;
57047;SDS011;42934;54.294;18.598;2022-08-19T11:21:17;15.82;;;6.63;;
57047;SDS011;42934;54.294;18.598;2022-08-19T11:23:49;7.85;;;5.55;;
57047;SDS011;42934;54.294;18.598;2022-08-19T11:26:21;11.75;;;6.57;;
57047;SDS011;42934;54.294;18.598;2022-08-19T11:28:51;9.35;;;5.88;;
57047;SDS011;42934;54.294;18.598;2022-08-19T11:31:22;9.23;;;6.25;;
57047;SDS011;42934;54.294;18.598;2022-08-19T11:33:55;12.93;;;6.10;;
57047;SDS011;42934;54.294;18.598;2022-08-19T11:36:27;12.50;;;6.78;;
57047;SDS011;42934;54.294;18.598;2022-08-19T11:38:58;17.45;;;6.55;;
57047;SDS011;42934;54.294;18.598;2022-08-19T11:41:28;7.70;;;6.53;;
57047;SDS011;42934;54.294;18.598;2022-08-19T11:43:58;10.35;;;6.88;;
57047;SDS011;42934;54.294;18.598;2022-08-19T11:46:30;10.30;;;6.75;;
57047;SDS011;42934;54.294;18.598;2022-08-19T11:49:00;7.93;;;6.68;;
57047;SDS011;42934;54.294;18.598;2022-08-19T11:51:37;9.80;;;6.85;;
57047;SDS011;42934;54.294;18.598;2022-08-19T11:54:06;12.68;;;6.53;;
57047;SDS011;42934;54.294;18.598;2022-08-19T11:56:36;16.45;;;7.07;;
57047;SDS011;42934;54.294;18.598;2022-08-19T11:59:07;13.07;;;6.53;;
57047;SDS011;42934;54.294;18.598;2022-08-19T12:01:41;19.42;;;7.57;;
57047;SDS011;42934;54.294;18.598;2022-08-19T12:04:10;13.55;;;7.00;;
57047;SDS011;42934;54.294;18.598;2022-08-19T12:09:12;14.18;;;6.40;;
57047;SDS011;42934;54.294;18.598;2022-08-19T12:11:42;10.90;;;6.38;;
57047;SDS011;42934;54.294;18.598;2022-08-19T12:14:12;10.45;;;6.20;;
57047;SDS011;42934;54.294;18.598;2022-08-19T12:16:45;21.35;;;7.30;;
57047;SDS011;42934;54.294;18.598;2022-08-19T12:19:18;13.13;;;6.25;;
57047;SDS011;42934;54.294;18.598;2022-08-19T12:21:50;11.10;;;6.70;;
57047;SDS011;42934;54.294;18.598;2022-08-19T12:24:23;23.83;;;7.18;;
57047;SDS011;42934;54.294;18.598;2022-08-19T12:26:52;11.80;;;6.00;;
57047;SDS011;42934;54.294;18.598;2022-08-19T12:29:27;13.82;;;6.43;;
57047;SDS011;42934;54.294;18.598;2022-08-19T12:31:57;11.80;;;6.45;;
57047;SDS011;42934;54.294;18.598;2022-08-19T12:34:31;14.57;;;6.28;;
57047;SDS011;42934;54.294;18.598;2022-08-19T12:37:03;13.65;;;6.43;;
57047;SDS011;42934;54.294;18.598;2022-08-19T12:39:37;8.60;;;6.10;;
57047;SDS011;42934;54.294;18.598;2022-08-19T12:42:09;7.88;;;5.95;;
57047;SDS011;42934;54.294;18.598;2022-08-19T12:44:41;12.00;;;6.88;;
57047;SDS011;42934;54.294;18.598;2022-08-19T12:47:11;9.20;;;5.88;;
57047;SDS011;42934;54.294;18.598;2022-08-19T12:49:41;11.57;;;6.43;;
57047;SDS011;42934;54.294;18.598;2022-08-19T12:52:23;44.50;;;7.80;;
57047;SDS011;42934;54.294;18.598;2022-08-19T12:54:54;11.60;;;6.75;;
57047;SDS011;42934;54.294;18.598;2022-08-19T12:57:25;11.45;;;6.80;;
57047;SDS011;42934;54.294;18.598;2022-08-19T13:00:00;13.98;;;6.40;;
57047;SDS011;42934;54.294;18.598;2022-08-19T13:02:36;16.73;;;7.30;;
57047;SDS011;42934;54.294;18.598;2022-08-19T13:05:06;31.02;;;7.65;;
57047;SDS011;42934;54.294;18.598;2022-08-19T13:07:40;20.05;;;7.35;;
57047;SDS011;42934;54.294;18.598;2022-08-19T13:10:11;7.88;;;6.13;;
57047;SDS011;42934;54.294;18.598;2022-08-19T13:12:43;12.23;;;6.40;;
57047;SDS011;42934;54.294;18.598;2022-08-19T13:15:14;9.95;;;7.20;;
57047;SDS011;42934;54.294;18.598;2022-08-19T13:17:50;12.25;;;6.85;;
57047;SDS011;42934;54.294;18.598;2022-08-19T13:20:23;10.18;;;7.00;;
57047;SDS011;42934;54.294;18.598;2022-08-19T13:22:55;9.95;;;6.95;;
57047;SDS011;42934;54.294;18.598;2022-08-19T13:25:25;15.68;;;7.00;;
57047;SDS011;42934;54.294;18.598;2022-08-19T13:33:11;43.03;;;8.23;;
57047;SDS011;42934;54.294;18.598;2022-08-19T13:35:46;16.98;;;6.78;;
57047;SDS011;42934;54.294;18.598;2022-08-19T13:38:19;16.30;;;7.13;;
57047;SDS011;42934;54.294;18.598;2022-08-19T13:40:53;16.67;;;6.95;;
57047;SDS011;42934;54.294;18.598;2022-08-19T13:43:24;11.65;;;6.75;;
57047;SDS011;42934;54.294;18.598;2022-08-19T13:45:54;8.93;;;6.55;;
57047;SDS011;42934;54.294;18.598;2022-08-19T13:48:24;12.52;;;6.30;;
57047;SDS011;42934;54.294;18.598;2022-08-19T13:50:54;8.45;;;6.05;;
57047;SDS011;42934;54.294;18.598;2022-08-19T13:53:27;10.15;;;6.53;;
57047;SDS011;42934;54.294;18.598;2022-08-19T13:55:57;10.35;;;6.45;;
57047;SDS011;42934;54.294;18.598;2022-08-19T13:58:26;14.35;;;6.80;;
57047;SDS011;42934;54.294;18.598;2022-08-19T14:00:56;14.35;;;6.95;;
57047;SDS011;42934;54.294;18.598;2022-08-19T14:03:26;10.90;;;6.88;;
57047;SDS011;42934;54.294;18.598;2022-08-19T14:05:56;9.73;;;6.80;;
57047;SDS011;42934;54.294;18.598;2022-08-19T14:08:28;11.00;;;6.82;;
57047;SDS011;42934;54.294;18.598;2022-08-19T14:10:59;11.90;;;6.88;;
57047;SDS011;42934;54.294;18.598;2022-08-19T14:13:32;10.05;;;6.60;;
57047;SDS011;42934;54.294;18.598;2022-08-19T14:18:35;13.15;;;7.00;;
57047;SDS011;42934;54.294;18.598;2022-08-19T14:21:06;16.77;;;7.15;;
57047;SDS011;42934;54.294;18.598;2022-08-19T14:23:43;13.40;;;6.78;;
57047;SDS011;42934;54.294;18.598;2022-08-19T14:26:13;11.38;;;6.28;;
57047;SDS011;42934;54.294;18.598;2022-08-19T14:28:44;13.38;;;6.88;;
57047;SDS011;42934;54.294;18.598;2022-08-19T14:31:15;10.88;;;6.70;;
57047;SDS011;42934;54.294;18.598;2022-08-19T14:33:46;10.90;;;6.40;;
57047;SDS011;42934;54.294;18.598;2022-08-19T14:36:17;10.77;;;6.50;;
57047;SDS011;42934;54.294;18.598;2022-08-19T14:38:49;11.48;;;6.80;;
57047;SDS011;42934;54.294;18.598;2022-08-19T14:41:19;7.45;;;6.40;;
57047;SDS011;42934;54.294;18.598;2022-08-19T14:43:51;9.32;;;6.70;;
57047;SDS011;42934;54.294;18.598;2022-08-19T14:46:23;14.35;;;6.55;;
57047;SDS011;42934;54.294;18.598;2022-08-19T14:48:57;9.57;;;7.10;;
57047;SDS011;42934;54.294;18.598;2022-08-19T14:51:39;9.93;;;6.60;;
57047;SDS011;42934;54.294;18.598;2022-08-19T14:54:10;10.20;;;7.00;;
57047;SDS011;42934;54.294;18.598;2022-08-19T14:56:39;10.10;;;6.85;;
57047;SDS011;42934;54.294;18.598;2022-08-19T14:59:09;8.25;;;7.00;;
57047;SDS011;42934;54.294;18.598;2022-08-19T15:01:38;9.63;;;6.60;;
57047;SDS011;42934;54.294;18.598;2022-08-19T15:04:08;12.05;;;7.10;;
57047;SDS011;42934;54.294;18.598;2022-08-19T15:06:37;9.95;;;7.18;;
57047;SDS011;42934;54.294;18.598;2022-08-19T15:09:10;13.70;;;7.40;;
57047;SDS011;42934;54.294;18.598;2022-08-19T15:11:40;14.55;;;7.05;;
57047;SDS011;42934;54.294;18.598;2022-08-19T15:14:10;9.25;;;7.38;;
57047;SDS011;42934;54.294;18.598;2022-08-19T15:16:41;11.63;;;7.13;;
57047;SDS011;42934;54.294;18.598;2022-08-19T15:21:40;14.52;;;7.43;;
57047;SDS011;42934;54.294;18.598;2022-08-19T15:24:11;25.20;;;7.38;;